sensor_id;sensor_type;location;lat;lon;timestamp;temperature;humidity
909;DHT22;441;51.192;6.788;2022-12-10T00:01:43;19.20;47.70
909;DHT22;441;51.192;6.788;2022-12-10T00:04:11;19.20;48.30
909;DHT22;441;51.192;6.788;2022-12-10T00:06:38;19.30;48.40
909;DHT22;441;51.192;6.788;2022-12-10T00:09:09;19.30;48.40
909;DHT22;441;51.192;6.788;2022-12-10T00:11:39;19.30;48.40
909;DHT22;441;51.192;6.788;2022-12-10T00:14:06;19.50;48.40
909;DHT22;441;51.192;6.788;2022-12-10T00:16:33;19.50;48.40
909;DHT22;441;51.192;6.788;2022-12-10T00:19:01;19.60;48.90
909;DHT22;441;51.192;6.788;2022-12-10T00:21:29;19.70;49.50
909;DHT22;441;51.192;6.788;2022-12-10T00:23:57;19.70;48.20
909;DHT22;441;51.192;6.788;2022-12-10T00:26:26;19.80;48.70
909;DHT22;441;51.192;6.788;2022-12-10T00:28:55;19.80;49.00
909;DHT22;441;51.192;6.788;2022-12-10T00:31:24;19.90;49.00
909;DHT22;441;51.192;6.788;2022-12-10T00:33:53;19.90;48.40
909;DHT22;441;51.192;6.788;2022-12-10T00:36:21;20.00;47.80
909;DHT22;441;51.192;6.788;2022-12-10T00:38:49;20.00;48.30
909;DHT22;441;51.192;6.788;2022-12-10T00:41:17;20.10;48.40
909;DHT22;441;51.192;6.788;2022-12-10T00:43:44;20.10;48.30
909;DHT22;441;51.192;6.788;2022-12-10T00:46:14;20.20;48.00
909;DHT22;441;51.192;6.788;2022-12-10T00:48:42;20.40;48.20
909;DHT22;441;51.192;6.788;2022-12-10T00:51:12;20.50;48.40
909;DHT22;441;51.192;6.788;2022-12-10T00:53:40;20.60;48.20
909;DHT22;441;51.192;6.788;2022-12-10T00:56:08;20.70;48.00
909;DHT22;441;51.192;6.788;2022-12-10T00:58:37;20.70;48.00
909;DHT22;441;51.192;6.788;2022-12-10T01:01:12;20.80;47.90
909;DHT22;441;51.192;6.788;2022-12-10T01:03:39;20.90;47.70
909;DHT22;441;51.192;6.788;2022-12-10T01:06:11;21.00;47.60
909;DHT22;441;51.192;6.788;2022-12-10T01:08:39;21.10;47.50
909;DHT22;441;51.192;6.788;2022-12-10T01:11:07;21.20;47.50
909;DHT22;441;51.192;6.788;2022-12-10T01:13:34;21.20;47.40
909;DHT22;441;51.192;6.788;2022-12-10T01:16:03;21.20;47.30
909;DHT22;441;51.192;6.788;2022-12-10T01:18:32;21.30;47.30
909;DHT22;441;51.192;6.788;2022-12-10T01:21:02;21.30;47.50
909;DHT22;441;51.192;6.788;2022-12-10T01:23:31;21.20;46.60
909;DHT22;441;51.192;6.788;2022-12-10T01:26:00;21.10;46.90
909;DHT22;441;51.192;6.788;2022-12-10T01:28:29;20.90;46.30
909;DHT22;441;51.192;6.788;2022-12-10T01:31:00;20.80;46.50
909;DHT22;441;51.192;6.788;2022-12-10T01:33:27;20.70;46.60
909;DHT22;441;51.192;6.788;2022-12-10T01:35:55;20.70;46.80
909;DHT22;441;51.192;6.788;2022-12-10T01:38:22;20.60;46.90
909;DHT22;441;51.192;6.788;2022-12-10T01:40:48;20.50;47.00
909;DHT22;441;51.192;6.788;2022-12-10T01:43:15;20.50;47.10
909;DHT22;441;51.192;6.788;2022-12-10T01:45:42;20.40;47.20
909;DHT22;441;51.192;6.788;2022-12-10T01:48:11;20.30;47.20
909;DHT22;441;51.192;6.788;2022-12-10T01:50:38;20.30;47.40
909;DHT22;441;51.192;6.788;2022-12-10T01:53:06;20.30;47.40
909;DHT22;441;51.192;6.788;2022-12-10T01:55:44;20.20;47.40
909;DHT22;441;51.192;6.788;2022-12-10T01:58:13;20.20;47.50
909;DHT22;441;51.192;6.788;2022-12-10T02:00:45;20.10;47.50
909;DHT22;441;51.192;6.788;2022-12-10T02:03:15;20.10;47.60
909;DHT22;441;51.192;6.788;2022-12-10T02:05:49;20.00;47.60
909;DHT22;441;51.192;6.788;2022-12-10T02:08:25;20.10;47.80
909;DHT22;441;51.192;6.788;2022-12-10T02:11:04;20.00;47.80
909;DHT22;441;51.192;6.788;2022-12-10T02:13:39;20.00;47.80
909;DHT22;441;51.192;6.788;2022-12-10T02:16:09;19.90;47.80
909;DHT22;441;51.192;6.788;2022-12-10T02:18:42;19.90;47.90
909;DHT22;441;51.192;6.788;2022-12-10T02:21:14;19.90;48.00
909;DHT22;441;51.192;6.788;2022-12-10T02:23:47;19.90;48.00
909;DHT22;441;51.192;6.788;2022-12-10T02:26:20;19.90;48.00
909;DHT22;441;51.192;6.788;2022-12-10T02:28:52;19.80;48.00
909;DHT22;441;51.192;6.788;2022-12-10T02:31:26;19.80;48.00
909;DHT22;441;51.192;6.788;2022-12-10T02:33:58;19.80;48.60
909;DHT22;441;51.192;6.788;2022-12-10T02:36:29;19.80;48.10
909;DHT22;441;51.192;6.788;2022-12-10T02:39:01;19.80;48.20
909;DHT22;441;51.192;6.788;2022-12-10T02:41:30;19.80;48.20
909;DHT22;441;51.192;6.788;2022-12-10T02:44:00;19.80;48.20
909;DHT22;441;51.192;6.788;2022-12-10T02:46:32;19.80;48.20
909;DHT22;441;51.192;6.788;2022-12-10T02:49:00;19.80;48.20
909;DHT22;441;51.192;6.788;2022-12-10T02:51:28;19.80;48.20
909;DHT22;441;51.192;6.788;2022-12-10T02:53:59;19.70;48.20
909;DHT22;441;51.192;6.788;2022-12-10T02:56:30;19.70;48.20
909;DHT22;441;51.192;6.788;2022-12-10T02:59:06;19.80;48.30
909;DHT22;441;51.192;6.788;2022-12-10T03:01:42;19.70;48.30
909;DHT22;441;51.192;6.788;2022-12-10T03:04:16;19.70;48.30
909;DHT22;441;51.192;6.788;2022-12-10T03:06:48;19.70;48.30
909;DHT22;441;51.192;6.788;2022-12-10T03:09:19;19.70;48.30
909;DHT22;441;51.192;6.788;2022-12-10T03:11:50;19.70;48.40
909;DHT22;441;51.192;6.788;2022-12-10T03:14:25;19.70;48.40
909;DHT22;441;51.192;6.788;2022-12-10T03:16:57;19.70;48.40
909;DHT22;441;51.192;6.788;2022-12-10T03:19:29;19.70;48.40
909;DHT22;441;51.192;6.788;2022-12-10T03:21:58;19.70;48.40
909;DHT22;441;51.192;6.788;2022-12-10T03:24:28;19.70;48.40
909;DHT22;441;51.192;6.788;2022-12-10T03:26:56;19.70;48.40
909;DHT22;441;51.192;6.788;2022-12-10T03:29:30;19.70;48.40
909;DHT22;441;51.192;6.788;2022-12-10T03:31:59;19.60;48.40
909;DHT22;441;51.192;6.788;2022-12-10T03:34:27;19.70;48.50
909;DHT22;441;51.192;6.788;2022-12-10T03:36:54;19.60;48.90
909;DHT22;441;51.192;6.788;2022-12-10T03:39:21;19.70;48.50
909;DHT22;441;51.192;6.788;2022-12-10T03:41:48;19.70;48.50
909;DHT22;441;51.192;6.788;2022-12-10T03:44:26;19.70;48.40
909;DHT22;441;51.192;6.788;2022-12-10T03:46:53;19.70;48.40
909;DHT22;441;51.192;6.788;2022-12-10T03:49:22;19.70;48.40
909;DHT22;441;51.192;6.788;2022-12-10T03:51:48;19.70;48.40
909;DHT22;441;51.192;6.788;2022-12-10T03:54:15;19.70;48.40
909;DHT22;441;51.192;6.788;2022-12-10T03:56:42;19.70;48.40
909;DHT22;441;51.192;6.788;2022-12-10T03:59:09;19.70;48.50
909;DHT22;441;51.192;6.788;2022-12-10T04:01:36;19.70;48.50
909;DHT22;441;51.192;6.788;2022-12-10T04:04:04;19.70;48.50
909;DHT22;441;51.192;6.788;2022-12-10T04:06:32;19.70;48.40
909;DHT22;441;51.192;6.788;2022-12-10T04:08:59;19.70;48.40
909;DHT22;441;51.192;6.788;2022-12-10T04:11:26;19.70;48.40
909;DHT22;441;51.192;6.788;2022-12-10T04:13:53;19.80;48.40
909;DHT22;441;51.192;6.788;2022-12-10T04:16:37;19.80;48.30
909;DHT22;441;51.192;6.788;2022-12-10T04:19:06;19.90;48.30
909;DHT22;441;51.192;6.788;2022-12-10T04:21:36;19.90;48.30
909;DHT22;441;51.192;6.788;2022-12-10T04:24:22;19.90;48.20
909;DHT22;441;51.192;6.788;2022-12-10T04:27:09;19.90;48.20
909;DHT22;441;51.192;6.788;2022-12-10T04:29:37;19.90;48.20
909;DHT22;441;51.192;6.788;2022-12-10T04:32:04;19.90;48.20
909;DHT22;441;51.192;6.788;2022-12-10T04:34:32;19.90;48.20
909;DHT22;441;51.192;6.788;2022-12-10T04:37:01;19.90;48.20
909;DHT22;441;51.192;6.788;2022-12-10T04:39:28;19.90;48.70
909;DHT22;441;51.192;6.788;2022-12-10T04:41:55;19.90;48.20
909;DHT22;441;51.192;6.788;2022-12-10T04:44:21;20.00;48.20
909;DHT22;441;51.192;6.788;2022-12-10T04:46:49;20.00;48.20
909;DHT22;441;51.192;6.788;2022-12-10T04:49:16;20.00;48.20
909;DHT22;441;51.192;6.788;2022-12-10T04:51:43;20.00;48.10
909;DHT22;441;51.192;6.788;2022-12-10T04:54:12;20.10;48.10
909;DHT22;441;51.192;6.788;2022-12-10T04:56:40;20.10;48.10
909;DHT22;441;51.192;6.788;2022-12-10T04:59:07;20.10;48.10
909;DHT22;441;51.192;6.788;2022-12-10T05:01:35;20.10;48.70
909;DHT22;441;51.192;6.788;2022-12-10T05:04:03;20.10;48.10
909;DHT22;441;51.192;6.788;2022-12-10T05:06:31;20.10;48.00
909;DHT22;441;51.192;6.788;2022-12-10T05:08:58;20.10;48.10
909;DHT22;441;51.192;6.788;2022-12-10T05:11:28;20.10;48.10
909;DHT22;441;51.192;6.788;2022-12-10T05:13:55;20.10;48.00
909;DHT22;441;51.192;6.788;2022-12-10T05:16:24;20.20;48.10
909;DHT22;441;51.192;6.788;2022-12-10T05:18:52;20.20;48.10
909;DHT22;441;51.192;6.788;2022-12-10T05:21:20;20.20;48.00
909;DHT22;441;51.192;6.788;2022-12-10T05:23:49;20.20;48.60
909;DHT22;441;51.192;6.788;2022-12-10T05:26:16;20.20;48.00
909;DHT22;441;51.192;6.788;2022-12-10T05:28:49;20.20;48.00
909;DHT22;441;51.192;6.788;2022-12-10T05:31:17;20.20;48.00
909;DHT22;441;51.192;6.788;2022-12-10T05:33:45;20.20;48.00
909;DHT22;441;51.192;6.788;2022-12-10T05:36:14;20.20;48.00
909;DHT22;441;51.192;6.788;2022-12-10T05:38:41;20.20;48.00
909;DHT22;441;51.192;6.788;2022-12-10T05:41:10;20.30;48.00
909;DHT22;441;51.192;6.788;2022-12-10T05:43:38;20.30;48.10
909;DHT22;441;51.192;6.788;2022-12-10T05:46:09;20.30;48.00
909;DHT22;441;51.192;6.788;2022-12-10T05:48:37;20.30;48.00
909;DHT22;441;51.192;6.788;2022-12-10T05:51:04;20.30;48.00
909;DHT22;441;51.192;6.788;2022-12-10T05:53:31;20.40;48.00
909;DHT22;441;51.192;6.788;2022-12-10T05:56:02;20.30;47.90
909;DHT22;441;51.192;6.788;2022-12-10T05:58:30;20.40;48.10
909;DHT22;441;51.192;6.788;2022-12-10T06:00:57;20.40;48.00
909;DHT22;441;51.192;6.788;2022-12-10T06:03:26;20.40;48.00
909;DHT22;441;51.192;6.788;2022-12-10T06:05:54;20.40;48.00
909;DHT22;441;51.192;6.788;2022-12-10T06:08:21;20.40;48.00
909;DHT22;441;51.192;6.788;2022-12-10T06:10:47;20.40;48.00
909;DHT22;441;51.192;6.788;2022-12-10T06:13:14;20.50;48.00
909;DHT22;441;51.192;6.788;2022-12-10T06:15:41;20.50;48.10
909;DHT22;441;51.192;6.788;2022-12-10T06:18:08;20.50;48.10
909;DHT22;441;51.192;6.788;2022-12-10T06:20:38;20.50;48.00
909;DHT22;441;51.192;6.788;2022-12-10T06:23:06;20.40;47.90
909;DHT22;441;51.192;6.788;2022-12-10T06:25:33;20.40;47.80
909;DHT22;441;51.192;6.788;2022-12-10T06:27:59;20.50;47.90
909;DHT22;441;51.192;6.788;2022-12-10T06:30:26;20.50;47.90
909;DHT22;441;51.192;6.788;2022-12-10T06:32:53;20.50;47.90
909;DHT22;441;51.192;6.788;2022-12-10T06:35:20;20.50;47.90
909;DHT22;441;51.192;6.788;2022-12-10T06:37:48;20.50;47.90
909;DHT22;441;51.192;6.788;2022-12-10T06:40:15;20.50;47.90
909;DHT22;441;51.192;6.788;2022-12-10T06:42:42;20.50;47.90
909;DHT22;441;51.192;6.788;2022-12-10T06:45:10;20.50;47.90
909;DHT22;441;51.192;6.788;2022-12-10T06:47:37;20.50;47.70
909;DHT22;441;51.192;6.788;2022-12-10T06:50:04;20.50;47.90
909;DHT22;441;51.192;6.788;2022-12-10T06:52:31;20.60;47.80
909;DHT22;441;51.192;6.788;2022-12-10T06:54:59;20.60;47.90
909;DHT22;441;51.192;6.788;2022-12-10T06:57:26;20.60;47.70
909;DHT22;441;51.192;6.788;2022-12-10T06:59:53;20.60;47.70
909;DHT22;441;51.192;6.788;2022-12-10T07:02:20;20.60;47.80
909;DHT22;441;51.192;6.788;2022-12-10T07:04:47;20.60;47.70
909;DHT22;441;51.192;6.788;2022-12-10T07:07:13;20.60;47.60
909;DHT22;441;51.192;6.788;2022-12-10T07:09:40;20.60;47.70
909;DHT22;441;51.192;6.788;2022-12-10T07:12:08;20.60;47.70
909;DHT22;441;51.192;6.788;2022-12-10T07:14:35;20.60;47.60
909;DHT22;441;51.192;6.788;2022-12-10T07:17:02;20.60;47.70
909;DHT22;441;51.192;6.788;2022-12-10T07:19:30;20.60;47.70
909;DHT22;441;51.192;6.788;2022-12-10T07:21:57;20.70;47.80
909;DHT22;441;51.192;6.788;2022-12-10T07:24:24;20.70;47.70
909;DHT22;441;51.192;6.788;2022-12-10T07:26:51;20.70;47.70
909;DHT22;441;51.192;6.788;2022-12-10T07:29:20;20.60;47.50
909;DHT22;441;51.192;6.788;2022-12-10T07:31:48;20.70;47.50
909;DHT22;441;51.192;6.788;2022-12-10T07:34:15;20.70;47.70
909;DHT22;441;51.192;6.788;2022-12-10T07:36:41;20.70;47.60
909;DHT22;441;51.192;6.788;2022-12-10T07:39:09;20.70;47.70
909;DHT22;441;51.192;6.788;2022-12-10T07:41:42;20.70;47.70
909;DHT22;441;51.192;6.788;2022-12-10T07:44:11;20.70;47.80
909;DHT22;441;51.192;6.788;2022-12-10T07:46:39;20.70;47.70
909;DHT22;441;51.192;6.788;2022-12-10T07:49:06;20.80;48.00
909;DHT22;441;51.192;6.788;2022-12-10T07:51:33;20.80;49.90
909;DHT22;441;51.192;6.788;2022-12-10T07:54:00;20.90;50.40
909;DHT22;441;51.192;6.788;2022-12-10T07:56:27;21.00;49.10
909;DHT22;441;51.192;6.788;2022-12-10T07:58:54;21.10;48.90
909;DHT22;441;51.192;6.788;2022-12-10T08:01:24;21.20;50.90
909;DHT22;441;51.192;6.788;2022-12-10T08:03:54;21.30;48.90
909;DHT22;441;51.192;6.788;2022-12-10T08:06:22;21.40;48.80
909;DHT22;441;51.192;6.788;2022-12-10T08:08:50;21.50;48.90
909;DHT22;441;51.192;6.788;2022-12-10T08:11:19;21.50;50.00
909;DHT22;441;51.192;6.788;2022-12-10T08:13:47;21.60;50.00
909;DHT22;441;51.192;6.788;2022-12-10T08:16:16;21.70;48.70
909;DHT22;441;51.192;6.788;2022-12-10T08:18:43;21.70;47.90
909;DHT22;441;51.192;6.788;2022-12-10T08:21:14;21.80;47.90
909;DHT22;441;51.192;6.788;2022-12-10T08:23:42;21.80;47.60
909;DHT22;441;51.192;6.788;2022-12-10T08:26:10;21.80;47.40
909;DHT22;441;51.192;6.788;2022-12-10T08:28:38;22.10;49.10
909;DHT22;441;51.192;6.788;2022-12-10T08:31:06;22.00;47.30
909;DHT22;441;51.192;6.788;2022-12-10T08:33:34;21.90;47.00
909;DHT22;441;51.192;6.788;2022-12-10T08:36:02;21.80;47.40
909;DHT22;441;51.192;6.788;2022-12-10T08:38:31;21.80;47.80
909;DHT22;441;51.192;6.788;2022-12-10T08:40:58;21.80;47.40
909;DHT22;441;51.192;6.788;2022-12-10T08:43:25;21.80;47.40
909;DHT22;441;51.192;6.788;2022-12-10T08:45:52;21.80;47.00
909;DHT22;441;51.192;6.788;2022-12-10T08:48:19;21.70;47.00
909;DHT22;441;51.192;6.788;2022-12-10T08:50:46;21.70;47.10
909;DHT22;441;51.192;6.788;2022-12-10T08:53:13;21.70;47.00
909;DHT22;441;51.192;6.788;2022-12-10T08:55:41;21.70;46.80
909;DHT22;441;51.192;6.788;2022-12-10T08:58:09;21.70;46.80
909;DHT22;441;51.192;6.788;2022-12-10T09:00:36;21.70;46.80
909;DHT22;441;51.192;6.788;2022-12-10T09:03:03;21.70;46.90
909;DHT22;441;51.192;6.788;2022-12-10T09:05:30;21.70;46.70
909;DHT22;441;51.192;6.788;2022-12-10T09:07:57;21.70;46.60
909;DHT22;441;51.192;6.788;2022-12-10T09:10:23;21.70;46.50
909;DHT22;441;51.192;6.788;2022-12-10T09:12:52;21.60;46.20
909;DHT22;441;51.192;6.788;2022-12-10T09:15:19;21.60;46.60
909;DHT22;441;51.192;6.788;2022-12-10T09:17:46;21.60;46.80
909;DHT22;441;51.192;6.788;2022-12-10T09:20:13;21.60;46.90
909;DHT22;441;51.192;6.788;2022-12-10T09:22:40;21.60;46.70
909;DHT22;441;51.192;6.788;2022-12-10T09:25:08;21.50;46.70
909;DHT22;441;51.192;6.788;2022-12-10T09:27:36;21.50;46.90
909;DHT22;441;51.192;6.788;2022-12-10T09:30:05;21.50;46.90
909;DHT22;441;51.192;6.788;2022-12-10T09:32:32;21.60;47.30
909;DHT22;441;51.192;6.788;2022-12-10T09:34:59;21.60;47.20
909;DHT22;441;51.192;6.788;2022-12-10T09:37:26;21.60;47.20
909;DHT22;441;51.192;6.788;2022-12-10T09:39:53;21.60;47.30
909;DHT22;441;51.192;6.788;2022-12-10T09:42:30;21.60;47.20
909;DHT22;441;51.192;6.788;2022-12-10T09:45:05;21.60;47.10
909;DHT22;441;51.192;6.788;2022-12-10T09:47:39;21.60;47.00
909;DHT22;441;51.192;6.788;2022-12-10T09:50:14;21.60;47.00
909;DHT22;441;51.192;6.788;2022-12-10T09:52:45;21.70;47.10
909;DHT22;441;51.192;6.788;2022-12-10T09:55:18;21.70;46.80
909;DHT22;441;51.192;6.788;2022-12-10T09:57:47;21.70;47.00
909;DHT22;441;51.192;6.788;2022-12-10T10:00:22;21.70;47.30
909;DHT22;441;51.192;6.788;2022-12-10T10:02:50;21.70;47.20
909;DHT22;441;51.192;6.788;2022-12-10T10:05:21;21.80;47.10
909;DHT22;441;51.192;6.788;2022-12-10T10:07:51;21.80;47.20
909;DHT22;441;51.192;6.788;2022-12-10T10:10:23;21.80;47.00
909;DHT22;441;51.192;6.788;2022-12-10T10:12:52;21.80;47.10
909;DHT22;441;51.192;6.788;2022-12-10T10:15:25;21.80;47.10
909;DHT22;441;51.192;6.788;2022-12-10T10:17:57;21.80;46.80
909;DHT22;441;51.192;6.788;2022-12-10T10:20:25;21.80;46.60
909;DHT22;441;51.192;6.788;2022-12-10T10:22:53;21.80;46.50
909;DHT22;441;51.192;6.788;2022-12-10T10:25:22;21.80;46.30
909;DHT22;441;51.192;6.788;2022-12-10T10:27:49;21.80;47.10
909;DHT22;441;51.192;6.788;2022-12-10T10:30:18;21.90;47.30
909;DHT22;441;51.192;6.788;2022-12-10T10:32:48;21.90;47.30
909;DHT22;441;51.192;6.788;2022-12-10T10:35:28;22.00;47.40
909;DHT22;441;51.192;6.788;2022-12-10T10:37:58;22.00;47.50
909;DHT22;441;51.192;6.788;2022-12-10T10:40:28;22.00;47.50
909;DHT22;441;51.192;6.788;2022-12-10T10:42:57;22.00;47.20
909;DHT22;441;51.192;6.788;2022-12-10T10:45:39;22.00;47.40
909;DHT22;441;51.192;6.788;2022-12-10T10:48:11;22.00;47.50
909;DHT22;441;51.192;6.788;2022-12-10T10:50:41;21.90;46.60
909;DHT22;441;51.192;6.788;2022-12-10T10:56:03;21.70;47.10
909;DHT22;441;51.192;6.788;2022-12-10T10:58:31;21.70;47.70
909;DHT22;441;51.192;6.788;2022-12-10T11:01:00;21.80;47.60
909;DHT22;441;51.192;6.788;2022-12-10T11:03:31;21.80;47.60
909;DHT22;441;51.192;6.788;2022-12-10T11:06:04;21.80;47.50
909;DHT22;441;51.192;6.788;2022-12-10T11:08:39;21.80;47.40
909;DHT22;441;51.192;6.788;2022-12-10T11:11:17;21.80;47.90
909;DHT22;441;51.192;6.788;2022-12-10T11:13:46;21.90;47.60
909;DHT22;441;51.192;6.788;2022-12-10T11:16:19;21.90;47.30
909;DHT22;441;51.192;6.788;2022-12-10T11:18:57;21.80;48.00
909;DHT22;441;51.192;6.788;2022-12-10T11:21:28;21.90;47.90
909;DHT22;441;51.192;6.788;2022-12-10T11:23:57;21.90;48.10
909;DHT22;441;51.192;6.788;2022-12-10T11:26:52;21.90;48.20
909;DHT22;441;51.192;6.788;2022-12-10T11:29:33;22.00;48.00
909;DHT22;441;51.192;6.788;2022-12-10T11:35:09;22.00;47.50
909;DHT22;441;51.192;6.788;2022-12-10T11:37:39;22.00;47.10
909;DHT22;441;51.192;6.788;2022-12-10T11:43:32;21.90;47.30
909;DHT22;441;51.192;6.788;2022-12-10T11:49:04;21.90;47.60
909;DHT22;441;51.192;6.788;2022-12-10T11:51:42;22.00;48.60
909;DHT22;441;51.192;6.788;2022-12-10T11:54:31;21.90;48.60
909;DHT22;441;51.192;6.788;2022-12-10T11:57:08;21.90;48.70
909;DHT22;441;51.192;6.788;2022-12-10T11:59:41;21.90;48.50
909;DHT22;441;51.192;6.788;2022-12-10T12:02:48;21.90;48.30
909;DHT22;441;51.192;6.788;2022-12-10T12:05:29;21.90;48.20
909;DHT22;441;51.192;6.788;2022-12-10T12:08:07;21.90;48.10
909;DHT22;441;51.192;6.788;2022-12-10T12:13:41;21.90;48.30
909;DHT22;441;51.192;6.788;2022-12-10T12:16:17;22.00;48.50
909;DHT22;441;51.192;6.788;2022-12-10T12:18:50;22.10;48.50
909;DHT22;441;51.192;6.788;2022-12-10T12:21:20;22.10;48.30
909;DHT22;441;51.192;6.788;2022-12-10T12:23:52;22.10;48.30
909;DHT22;441;51.192;6.788;2022-12-10T12:26:26;22.20;48.00
909;DHT22;441;51.192;6.788;2022-12-10T12:29:00;22.20;47.90
909;DHT22;441;51.192;6.788;2022-12-10T12:31:34;22.30;48.10
909;DHT22;441;51.192;6.788;2022-12-10T12:34:05;22.30;47.70
909;DHT22;441;51.192;6.788;2022-12-10T12:36:34;22.30;48.30
909;DHT22;441;51.192;6.788;2022-12-10T12:39:09;22.30;48.40
909;DHT22;441;51.192;6.788;2022-12-10T12:41:45;22.30;48.20
909;DHT22;441;51.192;6.788;2022-12-10T12:44:21;22.30;48.00
909;DHT22;441;51.192;6.788;2022-12-10T12:46:50;22.30;48.10
909;DHT22;441;51.192;6.788;2022-12-10T12:49:22;22.30;47.80
909;DHT22;441;51.192;6.788;2022-12-10T12:51:54;22.30;47.80
909;DHT22;441;51.192;6.788;2022-12-10T12:54:24;22.30;47.90
909;DHT22;441;51.192;6.788;2022-12-10T12:56:59;22.40;47.90
909;DHT22;441;51.192;6.788;2022-12-10T12:59:39;22.30;47.40
909;DHT22;441;51.192;6.788;2022-12-10T13:02:19;22.30;47.30
909;DHT22;441;51.192;6.788;2022-12-10T13:04:50;22.30;47.30
909;DHT22;441;51.192;6.788;2022-12-10T13:07:31;22.40;47.30
909;DHT22;441;51.192;6.788;2022-12-10T13:10:22;22.40;47.30
909;DHT22;441;51.192;6.788;2022-12-10T13:12:51;22.30;47.10
909;DHT22;441;51.192;6.788;2022-12-10T13:15:33;22.30;47.10
909;DHT22;441;51.192;6.788;2022-12-10T13:18:06;22.30;47.10
909;DHT22;441;51.192;6.788;2022-12-10T13:20:46;22.30;47.10
909;DHT22;441;51.192;6.788;2022-12-10T13:23:33;22.40;47.10
909;DHT22;441;51.192;6.788;2022-12-10T13:26:24;22.40;47.00
909;DHT22;441;51.192;6.788;2022-12-10T13:28:53;22.40;47.00
909;DHT22;441;51.192;6.788;2022-12-10T13:31:33;22.40;47.00
909;DHT22;441;51.192;6.788;2022-12-10T13:34:20;22.30;46.90
909;DHT22;441;51.192;6.788;2022-12-10T13:37:06;22.30;46.90
909;DHT22;441;51.192;6.788;2022-12-10T13:39:47;22.30;46.90
909;DHT22;441;51.192;6.788;2022-12-10T13:42:34;22.40;47.00
909;DHT22;441;51.192;6.788;2022-12-10T13:45:31;22.30;46.80
909;DHT22;441;51.192;6.788;2022-12-10T13:48:24;22.30;46.90
909;DHT22;441;51.192;6.788;2022-12-10T13:50:58;22.30;46.90
909;DHT22;441;51.192;6.788;2022-12-10T13:53:36;22.40;46.90
909;DHT22;441;51.192;6.788;2022-12-10T13:56:10;22.40;46.90
909;DHT22;441;51.192;6.788;2022-12-10T13:58:47;22.40;46.90
909;DHT22;441;51.192;6.788;2022-12-10T14:01:24;22.40;46.90
909;DHT22;441;51.192;6.788;2022-12-10T14:04:04;22.40;46.90
909;DHT22;441;51.192;6.788;2022-12-10T14:06:39;22.30;46.80
909;DHT22;441;51.192;6.788;2022-12-10T14:09:11;22.20;46.90
909;DHT22;441;51.192;6.788;2022-12-10T14:11:42;22.10;47.00
909;DHT22;441;51.192;6.788;2022-12-10T14:14:20;22.10;47.10
909;DHT22;441;51.192;6.788;2022-12-10T14:16:48;22.00;47.10
909;DHT22;441;51.192;6.788;2022-12-10T14:19:16;22.00;47.80
909;DHT22;441;51.192;6.788;2022-12-10T14:21:45;21.90;47.30
909;DHT22;441;51.192;6.788;2022-12-10T14:24:31;21.90;47.40
909;DHT22;441;51.192;6.788;2022-12-10T14:27:00;21.80;47.40
909;DHT22;441;51.192;6.788;2022-12-10T14:29:29;21.80;47.50
909;DHT22;441;51.192;6.788;2022-12-10T14:31:56;21.70;48.10
909;DHT22;441;51.192;6.788;2022-12-10T14:34:26;21.70;47.60
909;DHT22;441;51.192;6.788;2022-12-10T14:36:56;21.60;47.80
909;DHT22;441;51.192;6.788;2022-12-10T14:39:27;21.60;48.50
909;DHT22;441;51.192;6.788;2022-12-10T14:41:56;21.60;48.00
909;DHT22;441;51.192;6.788;2022-12-10T14:44:24;21.60;47.80
909;DHT22;441;51.192;6.788;2022-12-10T14:47:03;21.70;47.80
909;DHT22;441;51.192;6.788;2022-12-10T14:49:30;21.80;47.70
909;DHT22;441;51.192;6.788;2022-12-10T14:51:57;21.90;47.60
909;DHT22;441;51.192;6.788;2022-12-10T14:54:28;21.90;47.50
909;DHT22;441;51.192;6.788;2022-12-10T14:56:59;22.00;47.40
909;DHT22;441;51.192;6.788;2022-12-10T14:59:29;22.00;47.40
909;DHT22;441;51.192;6.788;2022-12-10T15:02:21;22.10;47.40
909;DHT22;441;51.192;6.788;2022-12-10T15:04:49;22.20;47.30
909;DHT22;441;51.192;6.788;2022-12-10T15:07:20;22.20;47.20
909;DHT22;441;51.192;6.788;2022-12-10T15:09:47;22.20;47.10
909;DHT22;441;51.192;6.788;2022-12-10T15:12:24;22.20;47.10
909;DHT22;441;51.192;6.788;2022-12-10T15:14:53;22.20;47.10
909;DHT22;441;51.192;6.788;2022-12-10T15:17:37;22.20;47.40
909;DHT22;441;51.192;6.788;2022-12-10T15:20:19;22.20;47.50
909;DHT22;441;51.192;6.788;2022-12-10T15:22:46;22.20;47.30
909;DHT22;441;51.192;6.788;2022-12-10T15:25:21;22.20;47.20
909;DHT22;441;51.192;6.788;2022-12-10T15:27:57;22.30;47.20
909;DHT22;441;51.192;6.788;2022-12-10T15:30:33;22.30;47.10
909;DHT22;441;51.192;6.788;2022-12-10T15:33:20;22.30;47.10
909;DHT22;441;51.192;6.788;2022-12-10T15:35:48;22.30;47.00
909;DHT22;441;51.192;6.788;2022-12-10T15:38:16;22.30;47.00
909;DHT22;441;51.192;6.788;2022-12-10T15:40:43;22.40;47.60
909;DHT22;441;51.192;6.788;2022-12-10T15:43:12;22.40;47.40
909;DHT22;441;51.192;6.788;2022-12-10T15:45:42;22.30;46.80
909;DHT22;441;51.192;6.788;2022-12-10T15:48:12;22.40;46.90
909;DHT22;441;51.192;6.788;2022-12-10T15:50:41;22.50;47.10
909;DHT22;441;51.192;6.788;2022-12-10T15:53:11;22.50;46.80
909;DHT22;441;51.192;6.788;2022-12-10T15:55:40;22.60;47.30
909;DHT22;441;51.192;6.788;2022-12-10T15:58:11;22.60;47.40
909;DHT22;441;51.192;6.788;2022-12-10T16:00:39;22.70;47.40
909;DHT22;441;51.192;6.788;2022-12-10T16:03:11;22.70;47.80
909;DHT22;441;51.192;6.788;2022-12-10T16:05:39;22.80;47.80
909;DHT22;441;51.192;6.788;2022-12-10T16:08:12;22.80;47.50
909;DHT22;441;51.192;6.788;2022-12-10T16:10:40;22.90;47.80
909;DHT22;441;51.192;6.788;2022-12-10T16:13:13;22.90;46.80
909;DHT22;441;51.192;6.788;2022-12-10T16:15:44;22.90;46.80
909;DHT22;441;51.192;6.788;2022-12-10T16:18:13;22.90;46.90
909;DHT22;441;51.192;6.788;2022-12-10T16:20:39;23.00;47.10
909;DHT22;441;51.192;6.788;2022-12-10T16:23:06;23.00;47.10
909;DHT22;441;51.192;6.788;2022-12-10T16:25:34;23.00;47.10
909;DHT22;441;51.192;6.788;2022-12-10T16:28:02;23.10;47.20
909;DHT22;441;51.192;6.788;2022-12-10T16:30:33;23.10;48.70
909;DHT22;441;51.192;6.788;2022-12-10T16:33:00;23.10;49.10
909;DHT22;441;51.192;6.788;2022-12-10T16:35:28;23.10;48.30
909;DHT22;441;51.192;6.788;2022-12-10T16:37:56;23.10;52.00
909;DHT22;441;51.192;6.788;2022-12-10T16:40:25;23.10;53.50
909;DHT22;441;51.192;6.788;2022-12-10T16:42:53;23.10;53.80
909;DHT22;441;51.192;6.788;2022-12-10T16:45:23;23.10;53.50
909;DHT22;441;51.192;6.788;2022-12-10T16:47:51;23.20;53.30
909;DHT22;441;51.192;6.788;2022-12-10T16:50:18;23.10;53.70
909;DHT22;441;51.192;6.788;2022-12-10T16:52:47;23.20;53.40
909;DHT22;441;51.192;6.788;2022-12-10T16:55:16;23.20;54.00
909;DHT22;441;51.192;6.788;2022-12-10T16:57:44;23.20;52.60
909;DHT22;441;51.192;6.788;2022-12-10T17:00:12;23.20;52.60
909;DHT22;441;51.192;6.788;2022-12-10T17:02:40;23.10;52.70
909;DHT22;441;51.192;6.788;2022-12-10T17:05:14;23.10;52.90
909;DHT22;441;51.192;6.788;2022-12-10T17:07:41;23.10;52.40
909;DHT22;441;51.192;6.788;2022-12-10T17:10:11;23.10;52.40
909;DHT22;441;51.192;6.788;2022-12-10T17:12:38;23.10;52.20